createdAt,value
2022-10-14T00:00:49.366Z,34.97
2022-10-14T00:03:21.258Z,33.17
2022-10-14T00:05:53.166Z,37.65
2022-10-14T00:08:25.983Z,34.78
2022-10-14T00:10:57.919Z,34.80
2022-10-14T00:13:29.824Z,36.72
2022-10-14T00:16:03.188Z,32.92
2022-10-14T00:18:35.124Z,33.88
2022-10-14T00:21:07.420Z,34.85
2022-10-14T00:23:39.799Z,37.25
2022-10-14T00:26:21.275Z,34.90
2022-10-14T00:28:53.783Z,36.10
2022-10-14T00:31:26.221Z,35.83
2022-10-14T00:33:58.183Z,34.33
2022-10-14T00:36:30.212Z,35.53
2022-10-14T00:39:02.115Z,37.30
2022-10-14T00:41:35.417Z,35.85
2022-10-14T00:44:11.545Z,37.83
2022-10-14T00:46:47.347Z,35.72
2022-10-14T00:49:28.046Z,35.10
2022-10-14T00:52:16.668Z,34.67
2022-10-14T00:54:58.434Z,34.72
2022-10-14T00:57:30.912Z,34.10
2022-10-14T01:00:24.478Z,34.47
2022-10-14T01:02:57.759Z,34.55
2022-10-14T01:05:39.211Z,35.28
2022-10-14T01:08:47.441Z,39.38
2022-10-14T01:11:36.583Z,37.42
2022-10-14T01:14:53.942Z,32.63
2022-10-14T01:17:33.849Z,40.05
2022-10-14T01:20:27.366Z,37.35
2022-10-14T01:23:37.729Z,35.70
2022-10-14T01:26:20.622Z,37.22
2022-10-14T01:29:26.022Z,38.88
2022-10-14T01:32:13.446Z,35.90
2022-10-14T01:34:58.475Z,37.22
2022-10-14T01:37:34.114Z,37.53
2022-10-14T01:40:15.929Z,36.85
2022-10-14T01:42:48.400Z,36.70
2022-10-14T01:45:22.714Z,37.85
2022-10-14T01:47:55.569Z,40.15
2022-10-14T01:50:29.341Z,38.05
2022-10-14T01:53:26.076Z,38.97
2022-10-14T01:55:59.178Z,38.05
2022-10-14T01:58:34.118Z,36.55
2022-10-14T02:01:08.955Z,39.28
2022-10-14T02:03:47.118Z,36.03
2022-10-14T02:06:30.577Z,39.10
2022-10-14T02:09:11.040Z,36.78
2022-10-14T02:12:13.881Z,38.17
2022-10-14T02:15:10.004Z,38.67
2022-10-14T02:17:50.907Z,41.63
2022-10-14T02:20:32.699Z,40.13
2022-10-14T02:23:30.796Z,38.42
2022-10-14T02:26:04.168Z,37.15
2022-10-14T02:28:37.586Z,40.78
2022-10-14T02:31:15.136Z,42.40
2022-10-14T02:33:53.690Z,39.42
2022-10-14T02:36:27.618Z,41.30
2022-10-14T02:39:01.512Z,40.15
2022-10-14T02:41:35.816Z,42.00
2022-10-14T02:44:08.288Z,41.58
2022-10-14T02:46:41.397Z,39.03
2022-10-14T02:49:13.407Z,43.17
2022-10-14T02:51:45.318Z,43.67
2022-10-14T02:54:17.279Z,44.13
2022-10-14T02:56:49.180Z,39.78
2022-10-14T02:59:21.085Z,40.90
2022-10-14T03:01:53.026Z,40.13
2022-10-14T03:04:24.940Z,43.30
2022-10-14T03:06:56.816Z,43.28
2022-10-14T03:09:28.727Z,41.92
2022-10-14T03:12:00.795Z,44.22
2022-10-14T03:14:32.740Z,43.13
2022-10-14T03:17:04.693Z,43.97
2022-10-14T03:19:36.658Z,42.83
2022-10-14T03:22:08.684Z,44.42
2022-10-14T03:24:40.641Z,44.17
2022-10-14T03:27:12.544Z,42.03
2022-10-14T03:29:44.485Z,40.25
2022-10-14T03:32:16.544Z,42.50
2022-10-14T03:34:48.708Z,43.35
2022-10-14T03:37:20.721Z,43.40
2022-10-14T03:39:53.290Z,47.03
2022-10-14T03:42:25.475Z,43.70
2022-10-14T03:44:57.399Z,42.58
2022-10-14T03:47:29.397Z,44.33
2022-10-14T03:50:03.022Z,45.17
2022-10-14T03:52:35.080Z,44.63
2022-10-14T03:55:10.058Z,43.20
2022-10-14T03:57:41.994Z,46.25
2022-10-14T04:00:14.716Z,44.97
2022-10-14T04:02:46.636Z,45.90
2022-10-14T04:05:18.557Z,46.10
2022-10-14T04:07:50.469Z,45.60
2022-10-14T04:10:22.401Z,45.40
2022-10-14T04:12:55.009Z,46.63
2022-10-14T04:15:27.889Z,45.63
2022-10-14T04:18:03.235Z,44.95
2022-10-14T04:20:35.170Z,48.65
2022-10-14T04:23:07.490Z,46.05
2022-10-14T04:25:40.184Z,45.28
2022-10-14T04:28:12.083Z,46.25
2022-10-14T04:30:44.091Z,46.35
2022-10-14T04:33:15.987Z,47.67
2022-10-14T04:35:47.959Z,44.08
2022-10-14T04:38:20.171Z,46.15
2022-10-14T04:40:52.141Z,44.28
2022-10-14T04:43:24.196Z,42.50
2022-10-14T04:45:56.107Z,45.83
2022-10-14T04:48:28.097Z,46.88
2022-10-14T04:51:00.015Z,44.08
2022-10-14T04:53:32.015Z,42.97
2022-10-14T04:56:04.056Z,47.40
2022-10-14T04:58:35.944Z,44.63
2022-10-14T05:01:08.045Z,46.55
2022-10-14T05:03:39.980Z,50.13
2022-10-14T05:06:11.992Z,46.28
2022-10-14T05:08:44.215Z,46.50
2022-10-14T05:11:16.130Z,43.17
2022-10-14T05:13:48.160Z,47.65
2022-10-14T05:16:20.116Z,44.72
2022-10-14T05:18:52.289Z,41.05
2022-10-14T05:21:24.254Z,44.03
2022-10-14T05:23:56.134Z,43.85
2022-10-14T05:26:28.050Z,44.22
2022-10-14T05:29:00.006Z,44.83
2022-10-14T05:31:32.016Z,41.90
2022-10-14T05:34:03.991Z,43.15
2022-10-14T05:36:35.960Z,46.35
2022-10-14T05:39:09.056Z,43.22
2022-10-14T05:41:41.014Z,44.80
2022-10-14T05:44:13.072Z,42.72
2022-10-14T05:46:44.972Z,44.35
2022-10-14T05:49:16.886Z,40.08
2022-10-14T05:51:48.844Z,44.45
2022-10-14T05:54:20.754Z,45.17
2022-10-14T05:56:52.728Z,43.53
2022-10-14T05:59:24.664Z,41.83
2022-10-14T06:01:57.289Z,45.08
2022-10-14T06:04:29.229Z,43.50
2022-10-14T06:07:01.240Z,42.58
2022-10-14T06:09:33.250Z,42.63
2022-10-14T06:12:05.914Z,46.15
2022-10-14T06:14:40.328Z,43.22
2022-10-14T06:17:12.265Z,41.35
2022-10-14T06:19:44.214Z,42.83
2022-10-14T06:22:16.360Z,46.80
2022-10-14T06:24:48.280Z,44.42
2022-10-14T06:27:20.411Z,43.42
2022-10-14T06:29:52.354Z,43.90
2022-10-14T06:32:24.733Z,43.05
2022-10-14T06:34:56.979Z,43.05
2022-10-14T06:37:29.008Z,44.95
2022-10-14T06:40:01.035Z,45.92
2022-10-14T06:42:35.017Z,44.38
2022-10-14T06:45:07.335Z,41.65
2022-10-14T06:47:39.324Z,43.58
2022-10-14T06:50:11.250Z,41.22
2022-10-14T06:52:46.282Z,40.72
2022-10-14T06:55:18.456Z,41.72
2022-10-14T06:57:50.351Z,42.45
2022-10-14T07:00:22.347Z,41.22
2022-10-14T07:02:54.272Z,40.85
2022-10-14T07:05:27.221Z,37.42
2022-10-14T07:10:51.037Z,40.78
2022-10-14T07:13:22.962Z,38.95
2022-10-14T07:15:54.962Z,37.75
2022-10-14T07:18:27.194Z,35.58
2022-10-14T07:21:06.395Z,35.05
2022-10-14T07:23:38.315Z,34.80
2022-10-14T07:26:10.214Z,36.15
2022-10-14T07:28:42.225Z,36.42
2022-10-14T07:31:14.289Z,35.97
2022-10-14T07:33:46.264Z,37.90
2022-10-14T07:36:22.378Z,33.88
2022-10-14T07:38:54.915Z,32.00
2022-10-14T07:41:27.966Z,34.40
2022-10-14T07:44:05.579Z,34.70
2022-10-14T07:46:41.509Z,32.78
2022-10-14T07:49:18.397Z,32.95
2022-10-14T07:51:50.785Z,30.00
2022-10-14T07:54:26.567Z,35.15
2022-10-14T07:56:59.624Z,29.67
2022-10-14T07:59:31.535Z,29.65
2022-10-14T08:02:04.731Z,31.15
2022-10-14T08:04:36.657Z,32.42
2022-10-14T08:07:09.304Z,29.25
2022-10-14T08:09:41.679Z,30.17
2022-10-14T08:12:14.010Z,29.33
2022-10-14T08:14:45.992Z,26.45
2022-10-14T08:17:17.880Z,26.60
2022-10-14T08:19:50.959Z,29.70
2022-10-14T08:22:23.171Z,26.45
2022-10-14T08:24:55.553Z,25.45
2022-10-14T08:27:27.597Z,26.88
2022-10-14T08:29:59.636Z,26.30
2022-10-14T08:32:31.605Z,24.58
2022-10-14T08:35:03.747Z,24.38
2022-10-14T08:37:36.372Z,23.05
2022-10-14T08:40:10.433Z,23.33
2022-10-14T08:43:30.622Z,24.05
2022-10-14T08:46:32.591Z,22.50
2022-10-14T08:49:29.807Z,23.40
2022-10-14T08:52:09.807Z,23.27
2022-10-14T08:54:55.599Z,26.08
2022-10-14T08:57:33.668Z,26.70
2022-10-14T09:00:07.176Z,23.00
2022-10-14T09:02:49.899Z,22.85
2022-10-14T09:05:25.817Z,22.83
2022-10-14T09:07:59.076Z,23.77
2022-10-14T09:10:36.132Z,21.45
2022-10-14T09:13:21.513Z,22.38
2022-10-14T09:16:04.132Z,21.77
2022-10-14T09:18:41.731Z,23.55
2022-10-14T09:21:51.534Z,23.20
2022-10-14T09:24:37.835Z,20.95
2022-10-14T09:27:24.071Z,22.13
2022-10-14T09:30:10.311Z,21.48
2022-10-14T09:32:49.102Z,20.25
2022-10-14T09:35:28.085Z,20.38
2022-10-14T09:38:00.343Z,20.42
2022-10-14T09:40:44.956Z,22.05
2022-10-14T09:43:20.434Z,20.75
2022-10-14T09:46:01.167Z,20.75
2022-10-14T09:48:39.296Z,20.00
2022-10-14T09:51:18.556Z,20.77
2022-10-14T09:53:54.879Z,18.58
2022-10-14T09:56:40.681Z,18.48
2022-10-14T09:59:19.718Z,19.65
2022-10-14T10:02:05.568Z,17.40
2022-10-14T10:04:47.860Z,18.95
2022-10-14T10:07:32.359Z,17.77
2022-10-14T10:10:19.592Z,17.00
2022-10-14T10:12:51.573Z,15.20
2022-10-14T10:15:23.623Z,15.43
2022-10-14T10:17:55.536Z,15.32
2022-10-14T10:20:33.761Z,11.45
2022-10-14T10:23:25.567Z,11.93
2022-10-14T10:26:16.956Z,13.10
2022-10-14T10:28:50.144Z,14.05
2022-10-14T10:31:47.157Z,10.95
2022-10-14T10:34:48.060Z,12.18
2022-10-14T10:37:25.648Z,13.77
2022-10-14T10:40:47.627Z,14.77
2022-10-14T10:43:53.645Z,13.63
2022-10-14T10:46:55.006Z,15.32
2022-10-14T10:50:15.578Z,13.68
2022-10-14T10:53:01.355Z,13.50
2022-10-14T10:59:33.608Z,11.57
2022-10-14T11:02:33.359Z,13.13
2022-10-14T11:05:30.472Z,12.68
2022-10-14T11:08:53.685Z,11.77
2022-10-14T11:12:06.521Z,12.68
2022-10-14T11:14:38.360Z,14.18
2022-10-14T11:17:23.451Z,12.98
2022-10-14T11:20:28.235Z,11.85
2022-10-14T11:23:24.619Z,12.30
2022-10-14T11:26:25.035Z,10.85
2022-10-14T11:29:27.818Z,12.18
2022-10-14T11:32:21.831Z,11.73
2022-10-14T11:35:22.735Z,10.93
2022-10-14T11:38:29.000Z,12.15
2022-10-14T11:41:28.951Z,13.77
2022-10-14T11:44:27.822Z,13.55
2022-10-14T11:47:05.863Z,16.42
2022-10-14T11:49:49.018Z,15.57
2022-10-14T11:52:53.512Z,18.38
2022-10-14T11:55:30.163Z,15.93
2022-10-14T11:58:17.661Z,18.33
2022-10-14T12:01:11.624Z,17.67
2022-10-14T12:03:48.548Z,16.90
2022-10-14T12:06:34.432Z,17.77
2022-10-14T12:09:21.681Z,18.95
2022-10-14T12:12:03.829Z,20.25
2022-10-14T12:14:55.391Z,20.55
2022-10-14T12:18:16.827Z,19.92
2022-10-14T12:20:59.383Z,20.40
2022-10-14T12:24:09.033Z,19.77
2022-10-14T12:26:55.593Z,21.00
2022-10-14T12:29:59.806Z,21.98
2022-10-14T12:32:32.437Z,18.95
2022-10-14T12:35:48.951Z,20.23
2022-10-14T12:38:22.205Z,20.45
2022-10-14T12:40:54.298Z,19.95
2022-10-14T12:43:29.621Z,18.45
2022-10-14T12:46:14.779Z,20.88
2022-10-14T12:48:51.002Z,16.77
2022-10-14T12:51:24.633Z,15.55
2022-10-14T12:54:14.553Z,17.60
2022-10-14T12:57:06.834Z,16.10
2022-10-14T12:59:39.743Z,13.65
2022-10-14T13:02:33.827Z,14.52
2022-10-14T13:05:10.654Z,15.25
2022-10-14T13:07:48.942Z,12.02
2022-10-14T13:10:47.197Z,12.70
2022-10-14T13:13:38.539Z,11.80
2022-10-14T13:16:33.568Z,11.73
2022-10-14T13:19:07.825Z,12.07
2022-10-14T13:21:42.794Z,10.98
2022-10-14T13:24:38.933Z,12.32
2022-10-14T13:27:42.976Z,10.75
2022-10-14T13:30:40.605Z,10.88
2022-10-14T13:33:33.158Z,11.77
2022-10-14T13:36:16.720Z,10.73
2022-10-14T13:38:59.265Z,11.38
2022-10-14T13:41:34.644Z,11.10
2022-10-14T13:44:06.668Z,9.45
2022-10-14T13:46:45.797Z,10.13
2022-10-14T13:49:33.568Z,9.85
2022-10-14T13:52:10.796Z,9.35
2022-10-14T13:54:42.711Z,9.13
2022-10-14T14:00:46.132Z,10.45
2022-10-14T14:03:43.854Z,9.68
2022-10-14T14:06:18.942Z,9.60
2022-10-14T14:09:03.931Z,9.25
2022-10-14T14:11:37.798Z,8.75
2022-10-14T14:14:41.554Z,9.15
2022-10-14T14:17:21.940Z,7.20
2022-10-14T14:19:54.541Z,8.23
2022-10-14T14:22:31.645Z,8.13
2022-10-14T14:25:40.287Z,6.57
2022-10-14T14:28:15.581Z,6.95
2022-10-14T14:30:56.731Z,7.90
2022-10-14T14:33:32.909Z,6.97
2022-10-14T14:36:14.679Z,7.65
2022-10-14T14:39:01.535Z,7.22
2022-10-14T14:41:33.442Z,7.38
2022-10-14T14:44:24.564Z,7.05
2022-10-14T14:47:00.707Z,7.72
2022-10-14T14:49:38.176Z,6.25
2022-10-14T14:52:14.038Z,7.57
2022-10-14T14:54:48.248Z,8.02
2022-10-14T14:57:22.491Z,8.52
2022-10-14T15:00:08.081Z,8.63
2022-10-14T15:02:40.112Z,7.88
2022-10-14T15:05:12.524Z,6.80
2022-10-14T15:07:44.853Z,7.07
2022-10-14T15:10:24.503Z,6.85
2022-10-14T15:13:00.826Z,6.38
2022-10-14T15:15:35.034Z,6.00
2022-10-14T15:18:19.549Z,6.00
2022-10-14T15:20:52.082Z,6.07
2022-10-14T15:23:52.970Z,6.18
2022-10-14T15:26:36.560Z,5.72
2022-10-14T15:29:08.457Z,6.13
2022-10-14T15:31:43.586Z,6.30
2022-10-14T15:34:23.487Z,6.40
2022-10-14T15:36:55.580Z,5.18
2022-10-14T15:39:27.627Z,4.95
2022-10-14T15:41:59.835Z,5.82
2022-10-14T15:44:31.728Z,5.30
2022-10-14T15:47:19.258Z,5.88
2022-10-14T15:49:51.281Z,4.57
2022-10-14T15:52:26.169Z,5.03
2022-10-14T15:54:59.192Z,4.65
2022-10-14T15:57:31.246Z,4.97
2022-10-14T16:00:04.126Z,5.40
2022-10-14T16:02:36.709Z,4.75
2022-10-14T16:05:19.760Z,4.07
2022-10-14T16:07:52.304Z,4.40
2022-10-14T16:10:29.203Z,5.05
2022-10-14T16:13:02.671Z,5.05
2022-10-14T16:15:57.120Z,4.40
2022-10-14T16:18:29.382Z,5.78
2022-10-14T16:21:01.471Z,5.40
2022-10-14T16:23:34.502Z,5.90
2022-10-14T16:26:06.666Z,5.80
2022-10-14T16:28:39.801Z,5.35
2022-10-14T16:31:15.434Z,5.40
2022-10-14T16:33:50.907Z,4.50
2022-10-14T16:36:24.962Z,4.35
2022-10-14T16:38:57.014Z,4.82
2022-10-14T16:41:31.030Z,4.65
2022-10-14T16:44:04.722Z,4.90
2022-10-14T16:46:55.031Z,5.13
2022-10-14T16:51:58.795Z,4.38
2022-10-14T16:54:30.757Z,4.50
2022-10-14T16:57:03.983Z,4.10
2022-10-14T16:59:36.065Z,4.03
2022-10-14T17:02:11.132Z,4.50
2022-10-14T17:04:46.453Z,4.57
2022-10-14T17:07:18.508Z,4.53
2022-10-14T17:09:50.449Z,4.28
2022-10-14T17:12:22.678Z,4.32
2022-10-14T17:14:54.740Z,4.45
2022-10-14T17:17:26.717Z,4.25
2022-10-14T17:19:58.834Z,4.70
2022-10-14T17:22:30.763Z,4.80
2022-10-14T17:25:02.887Z,6.10
2022-10-14T17:27:34.783Z,6.35
2022-10-14T17:30:07.931Z,6.68
2022-10-14T17:32:40.555Z,6.63
2022-10-14T17:35:15.130Z,5.70
2022-10-14T17:37:47.416Z,6.22
2022-10-14T17:40:19.486Z,5.50
2022-10-14T17:42:51.419Z,5.00
2022-10-14T17:45:23.420Z,4.50
2022-10-14T17:47:55.695Z,4.35
2022-10-14T17:50:28.197Z,4.25
2022-10-14T17:53:00.595Z,3.97
2022-10-14T17:55:36.506Z,5.43
2022-10-14T17:58:08.451Z,6.18
2022-10-14T18:00:40.602Z,5.13
2022-10-14T18:03:12.645Z,5.15
2022-10-14T18:05:48.786Z,4.35
2022-10-14T18:08:21.112Z,4.25
2022-10-14T18:10:53.222Z,3.70
2022-10-14T18:13:25.359Z,4.45
2022-10-14T18:16:06.822Z,4.68
2022-10-14T18:18:39.735Z,4.60
2022-10-14T18:21:11.909Z,4.75
2022-10-14T18:23:43.956Z,4.93
2022-10-14T18:26:19.357Z,4.40
2022-10-14T18:28:55.604Z,4.65
2022-10-14T18:31:31.537Z,4.20
2022-10-14T18:34:04.029Z,5.18
2022-10-14T18:36:35.950Z,4.88
2022-10-14T18:39:11.443Z,4.50
2022-10-14T18:41:44.057Z,4.53
2022-10-14T18:44:16.355Z,4.45
2022-10-14T18:46:48.374Z,5.15
2022-10-14T18:49:20.429Z,5.53
2022-10-14T18:51:54.785Z,5.43
2022-10-14T18:54:26.828Z,5.35
2022-10-14T18:56:59.867Z,5.32
2022-10-14T18:59:32.065Z,5.57
2022-10-14T19:02:04.355Z,5.65
2022-10-14T19:04:36.547Z,5.20
2022-10-14T19:07:08.571Z,6.10
2022-10-14T19:09:40.664Z,5.72
2022-10-14T19:12:31.104Z,6.85
2022-10-14T19:17:35.012Z,5.80
2022-10-14T19:20:08.578Z,6.85
2022-10-14T19:22:44.925Z,7.43
2022-10-14T19:25:17.334Z,8.55
2022-10-14T19:27:49.308Z,7.45
2022-10-14T19:30:21.231Z,8.10
2022-10-14T19:32:53.288Z,7.32
2022-10-14T19:35:25.376Z,7.88
2022-10-14T19:37:57.475Z,6.80
2022-10-14T19:40:29.391Z,7.25
2022-10-14T19:43:01.386Z,6.60
2022-10-14T19:45:33.319Z,7.97
2022-10-14T19:48:06.100Z,7.35
2022-10-14T19:50:41.948Z,6.93
2022-10-14T19:53:13.969Z,7.47
2022-10-14T19:55:45.925Z,8.02
2022-10-14T19:58:18.005Z,7.50
2022-10-14T20:00:49.917Z,7.53
2022-10-14T20:03:22.120Z,7.28
2022-10-14T20:06:01.155Z,8.05
2022-10-14T20:08:33.893Z,8.52
2022-10-14T20:11:10.080Z,8.25
2022-10-14T20:13:43.729Z,8.88
2022-10-14T20:16:16.082Z,9.30
2022-10-14T20:18:48.084Z,9.45
2022-10-14T20:21:20.124Z,9.07
2022-10-14T20:23:52.140Z,9.05
2022-10-14T20:29:16.240Z,9.20
2022-10-14T20:31:48.193Z,9.95
2022-10-14T20:34:20.336Z,8.98
2022-10-14T20:36:53.438Z,10.45
2022-10-14T20:39:25.446Z,11.80
2022-10-14T20:41:57.461Z,10.88
2022-10-14T20:44:29.482Z,10.48
2022-10-14T20:47:01.491Z,11.27
2022-10-14T20:49:33.423Z,11.13
2022-10-14T20:52:05.456Z,11.73
2022-10-14T20:54:37.520Z,10.57
2022-10-14T20:57:10.149Z,12.30
2022-10-14T20:59:42.851Z,11.82
2022-10-14T21:02:23.517Z,12.48
2022-10-14T21:04:55.470Z,11.48
2022-10-14T21:07:27.493Z,12.48
2022-10-14T21:09:59.463Z,12.50
2022-10-14T21:12:31.541Z,11.10
2022-10-14T21:15:04.306Z,11.90
2022-10-14T21:17:36.296Z,14.35
2022-10-14T21:20:09.172Z,14.50
2022-10-14T21:22:41.223Z,13.80
2022-10-14T21:25:13.227Z,11.88
2022-10-14T21:27:45.149Z,13.75
2022-10-14T21:30:17.287Z,12.40
2022-10-14T21:32:49.395Z,14.13
2022-10-14T21:35:21.360Z,13.55
2022-10-14T21:37:53.533Z,15.38
2022-10-14T21:40:25.512Z,14.25
2022-10-14T21:42:57.464Z,15.10
2022-10-14T21:45:29.413Z,14.80
2022-10-14T21:48:01.726Z,15.43
2022-10-14T21:50:33.668Z,14.85
2022-10-14T21:53:05.642Z,16.55
2022-10-14T21:55:37.628Z,18.00
2022-10-14T21:58:09.568Z,16.85
2022-10-14T22:00:41.580Z,15.32
2022-10-14T22:03:14.393Z,16.02
2022-10-14T22:05:46.514Z,14.85
2022-10-14T22:08:23.039Z,16.80
2022-10-14T22:10:54.978Z,15.05
2022-10-14T22:13:27.583Z,13.60
2022-10-14T22:15:59.752Z,14.00
2022-10-14T22:18:32.566Z,14.73
2022-10-14T22:21:08.386Z,14.07
2022-10-14T22:23:40.601Z,15.00
2022-10-14T22:26:15.461Z,15.63
2022-10-14T22:28:48.161Z,15.57
2022-10-14T22:31:21.801Z,16.13
2022-10-14T22:33:54.087Z,16.20
2022-10-14T22:36:28.955Z,17.25
2022-10-14T22:39:07.017Z,16.63
2022-10-14T22:41:39.548Z,16.88
2022-10-14T22:44:11.616Z,18.58
2022-10-14T22:46:43.551Z,18.92
2022-10-14T22:49:16.060Z,19.83
2022-10-14T22:51:49.370Z,19.02
2022-10-14T22:54:22.740Z,21.45
2022-10-14T22:56:54.671Z,21.80
2022-10-14T22:59:26.763Z,22.30
2022-10-14T23:01:58.728Z,24.02
2022-10-14T23:04:30.800Z,23.63
2022-10-14T23:07:06.838Z,24.27
2022-10-14T23:09:39.099Z,24.17
2022-10-14T23:12:11.071Z,24.20
2022-10-14T23:14:43.039Z,24.73
2022-10-14T23:17:14.991Z,25.30
2022-10-14T23:19:47.099Z,25.05
2022-10-14T23:22:19.080Z,27.10
2022-10-14T23:24:51.033Z,28.65
2022-10-14T23:27:22.965Z,25.52
2022-10-14T23:29:54.980Z,27.58
2022-10-14T23:32:26.957Z,30.23
2022-10-14T23:34:58.923Z,28.08
2022-10-14T23:37:30.989Z,27.08
2022-10-14T23:40:04.850Z,26.25
2022-10-14T23:42:36.773Z,28.48
2022-10-14T23:45:09.877Z,27.88
2022-10-14T23:47:41.865Z,28.40
2022-10-14T23:50:13.864Z,28.13
2022-10-14T23:52:46.244Z,28.98
2022-10-14T23:55:18.249Z,30.58
2022-10-14T23:57:50.165Z,29.88
